This is the latest recevied weather packets stored in our database for station/object N8ESC. If no packets are shown the sender has not sent any weather packets the latest 10 day(s).
| Time | Temp. | Humidity | Pressure | Rain* | Wind** | Luminosity | Snow |
|---|---|---|---|---|---|---|---|
| 1777831962 | 15.56° C | 53% | 1001.2 hPa | 0 mm | - | 249 W/m² | - |
| 1777831658 | 16.11° C | 52% | 1001.1 hPa | 0 mm | - | 322 W/m² | - |
| 1777830751 | 15° C | 57% | 1001.2 hPa | 0 mm | - | 709 W/m² | - |
| 1777829238 | 13.89° C | 58% | 1001.6 hPa | 0 mm | - | 694 W/m² | - |
| 1777828329 | 14.44° C | 55% | 1001.9 hPa | 0 mm | - | 690 W/m² | - |
| 1777827723 | 13.89° C | 59% | 1002 hPa | 0 mm | - | 684 W/m² | - |
| 1777827420 | 13.89° C | 59% | 1002.2 hPa | 0 mm | - | 678 W/m² | - |
| 1777827116 | 13.33° C | 63% | 1002.2 hPa | 0 mm | - | 681 W/m² | - |
| 1777826510 | 13.33° C | 62% | 1002.5 hPa | 0 mm | - | 307 W/m² | - |
| 1777825904 | 13.89° C | 61% | 1002.5 hPa | 0 mm | - | 725 W/m² | - |
| 1777825601 | 13.33° C | 61% | 1002.5 hPa | 0 mm | - | 648 W/m² | - |
| 1777825299 | 12.22° C | 66% | 1002.7 hPa | 0 mm | - | 773 W/m² | - |
| 1777824691 | 12.22° C | 66% | 1002.8 hPa | 0 mm | - | 634 W/m² | - |
| 1777824389 | 12.22° C | 68% | 1003 hPa | 0 mm | - | 462 W/m² | - |
| 1777823781 | 12.22° C | 69% | 1002.9 hPa | 0 mm | - | 348 W/m² | - |
| 1777822571 | 12.22° C | 72% | 1003.4 hPa | 0 mm | - | 635 W/m² | - |
| 1777822268 | 12.78° C | 71% | 1003.2 hPa | 0 mm | - | 309 W/m² | - |
| 1777821361 | 13.33° C | 68% | 1003.4 hPa | 0 mm | - | 502 W/m² | - |
| 1777820450 | 11.67° C | 71% | 1003.5 hPa | 0 mm | - | 389 W/m² | - |
| 1777820148 | 10.56° C | 75% | 1003.7 hPa | 0 mm | - | 486 W/m² | - |
| 1777818331 | 7.22° C | 86% | 1004.4 hPa | 0 mm | - | 195 W/m² | - |
| 1777818026 | 7.78° C | 86% | 1004.4 hPa | 0 mm | - | 92 W/m² | - |
| 1777817421 | 8.89° C | 81% | 1004.1 hPa | 1.78 mm | - | 42 W/m² | - |
| 1777817117 | 9.44° C | 78% | 1004 hPa | 0 mm | - | 35 W/m² | - |
| 1777810757 | 5.56° C | 85% | 1004.8 hPa | 0 mm | - | 39 W/m² | - |
* Rain latest hour (hover to see other rain measurements)
** Current wind speed in m/s (hover to see current wind gust speed)